Time;durP1;ratioP1;P1;durP2;ratioP2;P2;SDS_P1;SDS_P2;PMS_P1;PMS_P2;Temp;Humidity;BMP_temperature;BMP_pressure;BME280_temperature;BME280_humidity;BME280_pressure;Samples;Min_cycle;Max_cycle;Signal;HPM_P1;HPM_P2
2021/03/08 00:02:04;;;;;;;33.33;21.60;;;5.30;99.90;;;;;;5046268;28;20263;-78
2021/03/08 00:04:30;;;;;;;31.07;20.53;;;5.30;99.90;;;;;;5044864;28;20201;-78
2021/03/08 00:06:57;;;;;;;32.93;20.23;;;5.30;99.90;;;;;;5055149;28;20208;-78
2021/03/08 00:09:23;;;;;;;34.43;21.27;;;5.20;99.90;;;;;;5065817;28;20241;-79
2021/03/08 00:11:49;;;;;;;34.50;21.30;;;5.30;99.90;;;;;;5064534;28;20472;-78
2021/03/08 00:14:16;;;;;;;29.77;19.83;;;5.30;99.90;;;;;;5065252;28;20221;-79
2021/03/08 00:16:42;;;;;;;31.53;20.70;;;5.20;99.90;;;;;;5064153;28;20227;-78
2021/03/08 00:19:09;;;;;;;30.67;19.70;;;5.30;99.90;;;;;;5064987;28;20232;-78
2021/03/08 00:21:36;;;;;;;29.03;19.10;;;5.30;99.90;;;;;;5064170;28;20201;-78
2021/03/08 00:24:02;;;;;;;30.43;18.93;;;5.20;99.90;;;;;;5065107;28;20213;-79
2021/03/08 00:26:28;;;;;;;29.60;18.97;;;5.20;99.90;;;;;;5058870;28;20201;-78
2021/03/08 00:28:55;;;;;;;30.47;20.10;;;5.20;99.90;;;;;;5045823;28;20209;-78
2021/03/08 00:31:21;;;;;;;35.83;20.13;;;5.20;99.90;;;;;;5044179;28;20754;-78
2021/03/08 00:33:47;;;;;;;35.83;20.50;;;5.20;99.90;;;;;;5045358;28;20213;-78
2021/03/08 00:36:15;;;;;;;28.47;18.90;;;5.30;99.90;;;;;;5062773;28;20228;-78
2021/03/08 00:38:42;;;;;;;29.93;19.97;;;5.30;99.90;;;;;;5063989;28;20315;-79
2021/03/08 00:41:08;;;;;;;32.37;20.43;;;5.30;99.90;;;;;;5064617;28;20598;-78
2021/03/08 00:43:34;;;;;;;29.43;20.30;;;5.30;99.90;;;;;;5049455;28;20214;-78
2021/03/08 00:46:01;;;;;;;30.77;21.43;;;5.40;99.90;;;;;;5062972;28;20605;-76
2021/03/08 00:48:27;;;;;;;31.40;20.67;;;5.40;99.90;;;;;;5052854;28;20245;-77
2021/03/08 00:50:53;;;;;;;30.33;19.87;;;5.40;99.90;;;;;;5044396;28;20199;-78
2021/03/08 00:53:20;;;;;;;31.03;21.30;;;5.40;99.90;;;;;;5043461;28;20283;-77
2021/03/08 00:55:47;;;;;;;33.47;19.90;;;5.40;99.90;;;;;;5044001;28;20226;-77
2021/03/08 00:58:13;;;;;;;33.87;21.47;;;5.40;99.90;;;;;;5045111;28;20217;-75
2021/03/08 01:00:39;;;;;;;30.10;20.97;;;5.30;99.90;;;;;;5043163;28;20522;-77
2021/03/08 01:03:06;;;;;;;33.67;21.13;;;5.30;99.90;;;;;;5043680;28;20214;-77
2021/03/08 01:05:32;;;;;;;33.87;21.23;;;5.30;99.90;;;;;;5043420;28;20208;-76
2021/03/08 01:07:58;;;;;;;30.80;19.93;;;5.40;99.90;;;;;;5043696;28;20255;-77
2021/03/08 01:10:27;;;;;;;33.03;21.53;;;5.30;99.90;;;;;;5056937;28;20296;-77
2021/03/08 01:12:53;;;;;;;30.33;20.77;;;5.30;99.90;;;;;;5063811;28;20206;-78
2021/03/08 01:15:20;;;;;;;30.53;19.60;;;5.30;99.90;;;;;;5063346;28;20359;-76
2021/03/08 01:17:47;;;;;;;33.47;21.20;;;5.30;99.90;;;;;;5044697;28;20267;-75
2021/03/08 01:20:15;;;;;;;42.60;21.90;;;5.30;99.90;;;;;;5043667;28;20883;-76
2021/03/08 01:22:42;;;;;;;35.63;21.00;;;5.30;99.90;;;;;;5042938;28;20584;-77
2021/03/08 01:25:11;;;;;;;32.77;21.37;;;5.30;99.90;;;;;;5043249;28;20202;-77
2021/03/08 01:27:38;;;;;;;32.10;20.33;;;5.40;99.90;;;;;;5041533;28;20256;-77
2021/03/08 01:30:08;;;;;;;34.80;21.80;;;5.40;99.90;;;;;;5042731;28;20206;-77
2021/03/08 01:32:34;;;;;;;33.60;22.13;;;5.30;99.90;;;;;;5059714;28;20746;-77
2021/03/08 01:35:01;;;;;;;31.90;22.37;;;5.40;99.90;;;;;;5057406;28;20225;-77
2021/03/08 01:37:27;;;;;;;37.03;20.33;;;5.40;99.90;;;;;;5042789;28;20194;-77
2021/03/08 01:39:53;;;;;;;31.83;19.50;;;5.40;99.90;;;;;;5043568;28;20202;-76
2021/03/08 01:42:20;;;;;;;31.20;19.50;;;5.40;99.90;;;;;;5042937;28;20206;-78
2021/03/08 01:44:48;;;;;;;28.90;20.10;;;5.40;99.90;;;;;;5043396;28;20263;-77
2021/03/08 01:47:14;;;;;;;30.33;20.07;;;5.30;99.90;;;;;;5042927;28;20194;-77
2021/03/08 01:49:41;;;;;;;38.07;21.67;;;5.40;99.90;;;;;;5042551;28;20865;-79
2021/03/08 01:52:08;;;;;;;32.77;20.13;;;5.40;99.90;;;;;;5043135;28;20194;-78
2021/03/08 01:54:34;;;;;;;31.27;20.90;;;5.40;99.90;;;;;;5042685;28;20210;-77
2021/03/08 01:57:01;;;;;;;34.13;20.90;;;5.30;99.90;;;;;;5043000;28;20626;-76
2021/03/08 01:59:27;;;;;;;30.87;20.30;;;5.30;99.90;;;;;;5042840;28;20225;-77
2021/03/08 02:01:56;;;;;;;30.80;20.57;;;5.30;99.90;;;;;;5042741;28;20260;-75
2021/03/08 02:04:22;;;;;;;31.43;20.27;;;5.40;99.90;;;;;;5042687;28;20209;-78
2021/03/08 02:06:48;;;;;;;27.40;19.70;;;5.40;99.90;;;;;;5042688;28;20197;-77
2021/03/08 02:09:15;;;;;;;31.57;20.07;;;5.40;99.90;;;;;;5045468;28;20290;-77
2021/03/08 02:11:46;;;;;;;31.80;20.00;;;5.40;99.90;;;;;;5061853;28;20205;-77
2021/03/08 02:14:25;;;;;;;32.63;20.57;;;5.40;99.90;;;;;;5062832;28;20499;-79
2021/03/08 02:16:58;;;;;;;31.30;21.50;;;5.40;99.90;;;;;;5046641;28;20653;-76
2021/03/08 02:19:48;;;;;;;31.53;20.47;;;5.40;99.90;;;;;;5042169;28;20201;-79
2021/03/08 02:22:49;;;;;;;29.40;19.83;;;5.40;99.90;;;;;;5043030;28;20209;-77
2021/03/08 02:25:32;;;;;;;27.43;19.37;;;5.40;99.90;;;;;;5042627;28;20209;-75
2021/03/08 02:28:24;;;;;;;32.20;19.47;;;5.40;99.90;;;;;;5042820;28;20198;-78
2021/03/08 02:30:53;;;;;;;32.27;20.33;;;5.40;99.90;;;;;;5041698;28;20206;-76
2021/03/08 02:33:23;;;;;;;31.13;20.57;;;5.40;99.90;;;;;;5042916;28;20598;-77
2021/03/08 02:35:54;;;;;;;34.20;21.80;;;5.40;99.90;;;;;;5042535;28;20233;-78
2021/03/08 02:38:26;;;;;;;31.80;19.77;;;5.40;99.90;;;;;;5042543;28;20209;-78
2021/03/08 02:40:57;;;;;;;30.47;19.30;;;5.30;99.90;;;;;;5043130;28;20206;-76
2021/03/08 02:43:30;;;;;;;29.20;19.17;;;5.30;99.90;;;;;;5041944;28;20766;-77
2021/03/08 02:46:00;;;;;;;31.73;19.80;;;5.30;99.90;;;;;;5042655;28;20220;-78
2021/03/08 02:48:27;;;;;;;28.83;19.17;;;5.30;99.90;;;;;;5042577;28;20201;-77
2021/03/08 02:50:57;;;;;;;29.37;19.17;;;5.30;99.90;;;;;;5042904;28;20209;-76
2021/03/08 02:53:26;;;;;;;28.37;19.10;;;5.30;99.90;;;;;;5041341;28;20659;-79
2021/03/08 02:55:58;;;;;;;28.37;19.33;;;5.30;99.90;;;;;;5042649;28;20303;-79
2021/03/08 02:58:26;;;;;;;29.10;20.63;;;5.30;99.90;;;;;;5042226;28;20210;-78
2021/03/08 03:00:53;;;;;;;31.43;20.00;;;5.30;99.90;;;;;;5041757;28;20210;-79
2021/03/08 03:03:22;;;;;;;32.23;20.73;;;5.20;99.90;;;;;;5042481;28;20197;-79
2021/03/08 03:05:50;;;;;;;28.87;19.17;;;5.30;99.90;;;;;;5043209;28;20302;-78
2021/03/08 03:08:19;;;;;;;28.80;21.43;;;5.30;99.90;;;;;;5042367;28;20665;-78
2021/03/08 03:10:46;;;;;;;31.30;20.23;;;5.40;99.90;;;;;;5058366;28;20205;-78
2021/03/08 03:13:13;;;;;;;31.93;20.17;;;5.40;99.90;;;;;;5062954;28;20201;-79
2021/03/08 03:15:41;;;;;;;28.07;18.67;;;5.40;99.90;;;;;;5043374;28;20234;-79
2021/03/08 03:18:10;;;;;;;34.67;20.27;;;5.40;99.90;;;;;;5043287;28;20212;-78
2021/03/08 03:20:38;;;;;;;27.10;18.37;;;5.50;99.90;;;;;;5041705;28;20247;-78
2021/03/08 03:23:06;;;;;;;25.53;17.07;;;5.50;99.90;;;;;;5062100;28;20217;-79
2021/03/08 03:25:33;;;;;;;28.70;18.27;;;5.50;99.90;;;;;;5046155;28;20217;-78
2021/03/08 03:28:00;;;;;;;27.03;17.10;;;5.50;99.90;;;;;;5043853;28;20202;-78
2021/03/08 03:30:29;;;;;;;26.03;18.07;;;5.40;99.90;;;;;;5061940;28;20219;-76
2021/03/08 03:32:56;;;;;;;24.47;17.00;;;5.40;99.90;;;;;;5062403;28;20212;-77
2021/03/08 03:35:26;;;;;;;32.23;17.67;;;5.50;99.90;;;;;;5043657;28;20229;-78
2021/03/08 03:37:55;;;;;;;24.73;16.47;;;5.40;99.90;;;;;;5042307;28;20210;-77
2021/03/08 03:40:22;;;;;;;27.60;18.87;;;5.50;99.90;;;;;;5041416;28;20256;-77
2021/03/08 03:42:50;;;;;;;29.10;19.43;;;5.50;99.90;;;;;;5040805;28;20904;-77
2021/03/08 03:45:19;;;;;;;32.57;20.10;;;5.40;99.90;;;;;;5041778;28;20202;-77
2021/03/08 03:47:47;;;;;;;30.47;19.23;;;5.50;99.90;;;;;;5040709;28;20715;-78
2021/03/08 03:50:15;;;;;;;28.43;19.37;;;5.50;99.90;;;;;;5042159;28;20201;-77
2021/03/08 03:52:43;;;;;;;30.73;21.20;;;5.50;99.90;;;;;;5041220;28;20210;-75
2021/03/08 03:55:13;;;;;;;32.80;21.00;;;5.50;99.90;;;;;;5041119;28;20358;-78
2021/03/08 03:57:46;;;;;;;33.67;20.50;;;5.40;99.90;;;;;;5041785;28;20206;-78
2021/03/08 04:00:15;;;;;;;34.20;20.60;;;5.50;99.90;;;;;;5042139;28;20208;-77
2021/03/08 04:02:47;;;;;;;31.73;20.87;;;5.50;99.90;;;;;;5040263;28;20210;-76
2021/03/08 04:05:20;;;;;;;36.07;22.03;;;5.50;99.90;;;;;;5048880;28;20201;-76
2021/03/08 04:07:47;;;;;;;32.50;21.87;;;5.60;99.90;;;;;;5061259;28;20201;-77
2021/03/08 04:10:15;;;;;;;32.57;21.53;;;5.60;99.90;;;;;;5061119;28;20271;-77
2021/03/08 04:12:46;;;;;;;33.10;22.77;;;5.60;99.90;;;;;;5063387;28;20201;-76
2021/03/08 04:15:15;;;;;;;31.60;22.97;;;5.50;99.90;;;;;;5046747;28;20232;-78
2021/03/08 04:17:42;;;;;;;35.87;22.90;;;5.60;99.90;;;;;;5044064;28;20205;-76
2021/03/08 04:20:13;;;;;;;36.70;22.43;;;5.60;99.90;;;;;;5045765;28;20298;-76
2021/03/08 04:22:41;;;;;;;35.53;23.93;;;5.60;99.90;;;;;;5043905;28;20198;-77
2021/03/08 04:25:09;;;;;;;37.73;24.47;;;5.60;99.90;;;;;;5044650;28;20213;-78
2021/03/08 04:27:37;;;;;;;41.10;26.23;;;5.50;99.90;;;;;;5044744;28;20205;-77
2021/03/08 04:30:05;;;;;;;37.63;25.90;;;5.60;99.90;;;;;;5064579;28;20217;-78
2021/03/08 04:32:31;;;;;;;34.63;23.53;;;5.60;99.90;;;;;;5060553;28;20208;-78
2021/03/08 04:34:59;;;;;;;40.07;23.83;;;5.60;99.90;;;;;;5044235;28;20209;-78
2021/03/08 04:37:26;;;;;;;35.63;25.07;;;5.60;99.90;;;;;;5044550;28;20202;-78
2021/03/08 04:39:53;;;;;;;36.17;23.57;;;5.70;99.90;;;;;;5044463;28;20209;-77
2021/03/08 04:42:21;;;;;;;35.37;22.43;;;5.60;99.90;;;;;;5045466;28;20213;-77
2021/03/08 04:44:48;;;;;;;40.63;23.87;;;5.70;99.90;;;;;;5044160;28;20206;-78
2021/03/08 04:47:18;;;;;;;38.30;23.63;;;5.70;99.90;;;;;;5044271;28;20219;-77
2021/03/08 04:49:46;;;;;;;40.63;24.43;;;5.70;99.90;;;;;;5045082;28;20201;-77
2021/03/08 04:52:13;;;;;;;33.63;22.73;;;5.70;99.90;;;;;;5044407;28;20206;-80
2021/03/08 04:54:43;;;;;;;35.23;23.10;;;5.60;99.90;;;;;;5043555;28;20962;-78
2021/03/08 04:57:12;;;;;;;40.47;23.17;;;5.70;99.90;;;;;;5043698;28;20257;-77
2021/03/08 04:59:39;;;;;;;35.17;21.60;;;5.70;99.90;;;;;;5043222;28;20206;-77
2021/03/08 05:02:09;;;;;;;35.10;21.13;;;5.60;99.90;;;;;;5044300;28;20255;-77
2021/03/08 05:04:38;;;;;;;33.60;21.90;;;5.60;99.90;;;;;;5043514;28;20198;-77
2021/03/08 05:07:07;;;;;;;33.83;20.97;;;5.50;99.90;;;;;;5044519;28;20197;-76
2021/03/08 05:09:34;;;;;;;34.33;20.70;;;5.50;99.90;;;;;;5048805;28;20233;-76
2021/03/08 05:12:02;;;;;;;36.43;20.93;;;5.50;99.90;;;;;;5063408;28;21067;-78
2021/03/08 05:14:29;;;;;;;33.33;20.07;;;5.60;99.90;;;;;;5062449;28;20232;-77
2021/03/08 05:16:56;;;;;;;33.60;19.80;;;5.60;99.90;;;;;;5063972;28;20364;-76
2021/03/08 05:19:24;;;;;;;29.93;18.93;;;5.70;99.90;;;;;;5063081;28;20205;-77
2021/03/08 05:21:52;;;;;;;27.93;17.80;;;5.60;99.90;;;;;;5063557;28;20201;-79
2021/03/08 05:24:20;;;;;;;30.80;19.03;;;5.60;99.90;;;;;;5062283;28;20220;-78
2021/03/08 05:26:46;;;;;;;27.17;19.67;;;5.50;99.90;;;;;;5063061;28;20559;-77
2021/03/08 05:29:13;;;;;;;30.23;18.20;;;5.60;99.90;;;;;;5047836;28;20213;-76
2021/03/08 05:31:41;;;;;;;29.97;19.70;;;5.60;99.90;;;;;;5045504;28;20197;-77
2021/03/08 05:34:10;;;;;;;29.63;18.73;;;5.60;99.90;;;;;;5061424;28;20212;-78
2021/03/08 05:36:42;;;;;;;29.23;19.07;;;5.60;99.90;;;;;;5061038;28;20221;-79
2021/03/08 05:39:09;;;;;;;31.63;20.13;;;5.50;99.90;;;;;;5044023;28;20201;-78
2021/03/08 05:41:50;;;;;;;28.27;19.53;;;5.50;99.90;;;;;;5043155;28;20197;-77
2021/03/08 05:44:20;;;;;;;26.73;18.90;;;5.60;99.90;;;;;;5043755;28;20225;-78
2021/03/08 05:47:11;;;;;;;27.33;18.33;;;5.50;99.90;;;;;;5055698;28;20213;-79
2021/03/08 05:49:57;;;;;;;28.30;17.77;;;5.50;99.90;;;;;;5062421;28;20223;-79
2021/03/08 05:53:08;;;;;;;29.87;19.07;;;5.60;99.90;;;;;;5062984;28;20205;-78
2021/03/08 05:55:53;;;;;;;29.30;17.87;;;5.60;99.90;;;;;;5043173;28;20221;-77
2021/03/08 05:58:39;;;;;;;22.73;15.70;;;5.50;99.90;;;;;;5044177;28;20205;-78
2021/03/08 06:01:35;;;;;;;27.43;17.57;;;5.60;99.90;;;;;;5042365;28;20194;-78
2021/03/08 06:04:18;;;;;;;29.53;17.90;;;5.60;99.90;;;;;;5044647;28;20228;-78
2021/03/08 06:07:12;;;;;;;24.30;17.13;;;5.60;99.90;;;;;;5043999;28;20641;-78
2021/03/08 06:09:47;;;;;;;25.37;16.37;;;5.70;99.90;;;;;;5044695;28;20260;-79
2021/03/08 06:12:18;;;;;;;24.63;16.77;;;5.60;99.90;;;;;;5063357;28;20296;-78
2021/03/08 06:14:46;;;;;;;24.53;16.40;;;5.60;99.90;;;;;;5044858;28;20690;-78
2021/03/08 06:17:14;;;;;;;27.10;17.30;;;5.60;99.90;;;;;;5043730;28;20241;-78
2021/03/08 06:19:42;;;;;;;22.93;16.10;;;5.60;99.90;;;;;;5043538;28;20315;-79
2021/03/08 06:22:10;;;;;;;24.60;16.03;;;5.60;99.90;;;;;;5043683;28;20201;-78
2021/03/08 06:24:38;;;;;;;24.07;16.73;;;5.60;99.90;;;;;;5043122;28;20198;-78
2021/03/08 06:27:07;;;;;;;22.87;15.47;;;5.60;99.90;;;;;;5063682;28;20213;-78
2021/03/08 06:29:35;;;;;;;24.47;15.57;;;5.60;99.90;;;;;;5062174;28;20201;-78
2021/03/08 06:32:02;;;;;;;24.73;15.20;;;5.60;99.90;;;;;;5063484;28;20507;-78
2021/03/08 06:34:28;;;;;;;25.27;16.67;;;5.60;99.90;;;;;;5060287;28;20205;-79
2021/03/08 06:36:55;;;;;;;22.67;14.27;;;5.60;99.90;;;;;;5053132;28;20229;-78
2021/03/08 06:39:22;;;;;;;28.73;18.20;;;5.60;99.90;;;;;;5063447;28;20875;-79
2021/03/08 06:41:48;;;;;;;25.10;15.53;;;5.50;99.90;;;;;;5043327;28;20777;-78
2021/03/08 06:44:15;;;;;;;27.40;16.43;;;5.50;99.90;;;;;;5042606;28;20194;-79
2021/03/08 06:46:44;;;;;;;23.63;16.13;;;5.50;99.90;;;;;;5042538;28;20992;-78
2021/03/08 06:49:10;;;;;;;23.57;16.40;;;5.50;99.90;;;;;;5043247;28;20946;-78
2021/03/08 06:51:57;;;;;;;25.97;17.20;;;5.40;99.90;;;;;;5045236;28;20198;-78
2021/03/08 06:54:23;;;;;;;29.20;16.90;;;5.40;99.90;;;;;;5062237;28;20539;-78
2021/03/08 06:56:49;;;;;;;26.83;16.03;;;5.30;99.90;;;;;;5062130;28;20228;-79
2021/03/08 06:59:16;;;;;;;26.17;15.33;;;5.30;99.90;;;;;;5045219;28;20206;-79
2021/03/08 07:01:43;;;;;;;24.90;16.10;;;5.30;99.90;;;;;;5042521;28;20213;-78
2021/03/08 07:04:12;;;;;;;23.77;15.87;;;5.30;99.90;;;;;;5042934;28;20209;-82
2021/03/08 07:06:38;;;;;;;25.50;14.73;;;5.30;99.90;;;;;;5045254;28;20581;-80
2021/03/08 07:09:06;;;;;;;28.23;15.97;;;5.30;99.90;;;;;;5063153;28;20278;-79
2021/03/08 07:11:33;;;;;;;23.37;15.20;;;5.40;99.90;;;;;;5061782;28;20205;-79
2021/03/08 07:14:00;;;;;;;24.43;16.00;;;5.30;99.90;;;;;;5062413;28;20242;-79
2021/03/08 07:16:38;;;;;;;22.37;15.20;;;5.30;99.90;;;;;;5047915;28;20816;-77
2021/03/08 07:19:05;;;;;;;27.20;16.27;;;5.30;99.90;;;;;;5042010;28;20205;-77
2021/03/08 07:21:32;;;;;;;23.87;15.87;;;5.30;99.90;;;;;;5040785;28;20684;-77
2021/03/08 07:24:10;;;;;;;23.37;15.57;;;5.40;99.90;;;;;;5042161;28;20202;-76
2021/03/08 07:26:37;;;;;;;23.47;15.43;;;5.40;99.90;;;;;;5039753;28;20201;-78
2021/03/08 07:29:08;;;;;;;20.63;14.60;;;5.40;99.90;;;;;;5041322;28;20201;-77
2021/03/08 07:31:37;;;;;;;21.27;14.63;;;5.50;99.90;;;;;;5040593;28;20602;-77
2021/03/08 07:34:04;;;;;;;23.23;16.00;;;5.60;99.90;;;;;;5041709;28;20224;-77
2021/03/08 07:36:30;;;;;;;21.10;14.73;;;5.70;99.90;;;;;;5041095;28;20217;-76
2021/03/08 07:38:57;;;;;;;25.23;14.83;;;5.80;99.90;;;;;;5041454;28;20206;-79
2021/03/08 07:41:24;;;;;;;23.63;16.07;;;5.90;99.90;;;;;;5040828;28;20213;-78
2021/03/08 07:43:51;;;;;;;21.17;14.73;;;6.00;99.90;;;;;;5040175;28;20206;-78
2021/03/08 07:46:28;;;;;;;23.60;15.17;;;6.20;99.90;;;;;;5043302;28;20488;-79
2021/03/08 07:48:56;;;;;;;20.27;14.50;;;6.30;99.90;;;;;;5046110;28;20205;-79
2021/03/08 07:51:23;;;;;;;25.97;16.63;;;6.40;99.90;;;;;;5045575;28;20201;-78
2021/03/08 07:53:58;;;;;;;23.67;15.47;;;6.50;99.90;;;;;;5045445;28;20312;-77
2021/03/08 07:56:25;;;;;;;21.67;14.27;;;6.60;99.90;;;;;;5045579;28;20236;-79
2021/03/08 07:58:52;;;;;;;24.47;15.97;;;6.60;99.90;;;;;;5045525;28;20206;-79
2021/03/08 08:01:19;;;;;;;28.27;17.23;;;6.60;99.90;;;;;;5063708;28;20220;-77
2021/03/08 08:03:45;;;;;;;25.03;16.33;;;6.70;99.90;;;;;;5065412;28;20201;-77
2021/03/08 08:06:13;;;;;;;25.10;15.93;;;6.70;99.90;;;;;;5065020;28;20277;-79
2021/03/08 08:08:47;;;;;;;26.57;18.17;;;6.80;99.90;;;;;;5061748;28;20237;-83
2021/03/08 08:11:13;;;;;;;24.70;16.53;;;6.90;99.90;;;;;;5064641;28;20205;-79
2021/03/08 08:13:43;;;;;;;54.63;21.80;;;6.90;99.90;;;;;;5063894;28;20217;-79
2021/03/08 08:16:11;;;;;;;30.43;18.03;;;7.00;99.90;;;;;;5065426;28;20225;-80
2021/03/08 08:18:40;;;;;;;25.13;17.30;;;7.10;99.90;;;;;;5061478;28;20209;-80
2021/03/08 08:24:42;;;;;;;27.10;17.00;;;7.10;99.90;;;;;;5035578;28;20584;-77
2021/03/08 08:27:11;;;;;;;28.20;17.07;;;7.20;99.90;;;;;;5048986;28;20296;-79
2021/03/08 08:29:38;;;;;;;30.30;18.23;;;7.20;99.90;;;;;;5043410;28;20201;-78
2021/03/08 08:32:06;;;;;;;28.73;17.30;;;7.30;99.90;;;;;;5043756;28;20480;-78
2021/03/08 08:34:35;;;;;;;30.57;18.93;;;7.30;99.90;;;;;;5044955;28;20234;-78
2021/03/08 08:37:12;;;;;;;34.07;20.90;;;7.40;99.90;;;;;;5044954;28;20226;-79
2021/03/08 08:39:40;;;;;;;30.13;19.00;;;7.50;99.90;;;;;;5043013;28;20209;-77
2021/03/08 08:42:18;;;;;;;34.57;20.83;;;7.60;99.90;;;;;;5065543;28;20209;-78
2021/03/08 08:44:45;;;;;;;32.00;23.07;;;7.60;99.90;;;;;;5063736;28;20255;-78
2021/03/08 08:47:24;;;;;;;28.50;19.83;;;7.70;99.90;;;;;;5056192;28;20205;-77
2021/03/08 08:49:53;;;;;;;26.70;16.43;;;7.80;99.90;;;;;;5044868;28;20198;-77
2021/03/08 08:52:51;;;;;;;22.17;15.53;;;7.90;99.90;;;;;;5044343;28;20205;-80
2021/03/08 08:55:21;;;;;;;22.33;15.60;;;7.90;99.90;;;;;;5044478;28;20292;-77
2021/03/08 08:58:29;;;;;;;22.53;16.37;;;8.00;99.90;;;;;;5043730;28;20259;-78
2021/03/08 09:04:11;;;;;;;25.47;15.63;;;8.10;99.90;;;;;;5046082;28;20235;-80
2021/03/08 09:06:42;;;;;;;24.70;16.57;;;8.20;99.90;;;;;;5048479;28;20288;-84
2021/03/08 09:09:09;;;;;;;24.47;17.27;;;8.30;99.90;;;;;;5050802;28;20429;-79
2021/03/08 09:11:53;;;;;;;26.53;17.10;;;8.40;99.90;;;;;;5067201;28;20203;-82
2021/03/08 09:14:33;;;;;;;26.23;17.63;;;8.40;99.90;;;;;;5048302;28;20633;-83
2021/03/08 09:17:15;;;;;;;24.90;17.03;;;8.50;99.90;;;;;;5048684;28;20225;-82
2021/03/08 09:19:43;;;;;;;26.47;17.10;;;8.50;99.90;;;;;;5047862;28;20488;-78
2021/03/08 09:22:32;;;;;;;24.00;16.73;;;8.50;99.90;;;;;;5048953;28;20264;-82
2021/03/08 09:24:59;;;;;;;24.90;16.43;;;8.60;99.90;;;;;;5049004;28;20205;-82
2021/03/08 09:27:28;;;;;;;24.73;16.60;;;8.50;99.90;;;;;;5045820;28;20197;-81
2021/03/08 09:30:01;;;;;;;23.20;16.23;;;8.50;99.90;;;;;;5046726;28;20201;-81
2021/03/08 09:32:27;;;;;;;23.07;16.50;;;8.60;99.90;;;;;;5052034;28;20955;-81
2021/03/08 09:34:53;;;;;;;29.10;17.73;;;8.70;99.90;;;;;;5066405;28;20835;-78
2021/03/08 09:37:20;;;;;;;26.07;17.20;;;8.70;99.90;;;;;;5064741;28;20270;-78
2021/03/08 09:39:50;;;;;;;24.23;17.50;;;8.80;99.90;;;;;;5054532;28;20206;-81
2021/03/08 09:42:16;;;;;;;25.50;17.80;;;8.80;99.90;;;;;;5051346;28;20518;-80
2021/03/08 09:44:45;;;;;;;26.37;18.53;;;8.90;99.90;;;;;;5064646;28;20228;-80
2021/03/08 09:47:11;;;;;;;26.50;17.97;;;8.90;99.90;;;;;;5066875;28;20197;-80
2021/03/08 09:49:52;;;;;;;27.50;18.67;;;9.00;99.90;;;;;;5063893;28;20772;-79
2021/03/08 09:52:32;;;;;;;26.77;19.07;;;9.10;99.90;;;;;;5065723;28;20208;-80
2021/03/08 09:54:59;;;;;;;31.53;19.20;;;9.20;99.90;;;;;;5064750;28;20544;-81
2021/03/08 09:57:36;;;;;;;26.93;19.23;;;9.20;99.90;;;;;;5046015;28;20229;-80
2021/03/08 10:00:05;;;;;;;25.97;18.77;;;9.20;99.90;;;;;;5052144;28;20228;-81
2021/03/08 10:02:31;;;;;;;27.53;17.67;;;9.20;99.90;;;;;;5062755;28;20229;-77
2021/03/08 10:04:58;;;;;;;30.00;18.60;;;9.20;99.90;;;;;;5056393;28;20202;-79
2021/03/08 10:07:25;;;;;;;26.87;18.50;;;9.20;99.90;;;;;;5042940;28;20198;-79
2021/03/08 10:10:07;;;;;;;24.60;16.87;;;9.20;99.90;;;;;;5050680;28;20227;-77
2021/03/08 10:12:33;;;;;;;25.00;17.87;;;9.30;99.90;;;;;;5063900;28;20239;-79
2021/03/08 10:15:00;;;;;;;29.93;19.00;;;9.30;99.90;;;;;;5063065;28;20221;-79
2021/03/08 10:17:28;;;;;;;24.10;16.47;;;9.40;99.90;;;;;;5043216;28;20237;-80
2021/03/08 10:19:55;;;;;;;26.73;18.67;;;9.50;99.90;;;;;;5043550;28;20259;-80
2021/03/08 10:22:35;;;;;;;23.80;16.87;;;9.50;99.90;;;;;;5043250;28;20197;-80
2021/03/08 10:25:17;;;;;;;26.07;17.80;;;9.60;99.90;;;;;;5044875;28;20208;-80
2021/03/08 10:27:43;;;;;;;24.60;17.60;;;9.60;99.90;;;;;;5045352;28;20206;-83
2021/03/08 10:30:14;;;;;;;23.87;16.80;;;9.60;99.90;;;;;;5045247;28;20205;-80
2021/03/08 10:32:42;;;;;;;25.87;17.50;;;9.70;99.90;;;;;;5062366;28;20629;-81
2021/03/08 10:35:09;;;;;;;31.97;19.10;;;9.70;99.90;;;;;;5064683;28;20224;-83
2021/03/08 10:37:37;;;;;;;26.07;18.67;;;9.70;99.90;;;;;;5063436;28;20278;-79
2021/03/08 10:40:05;;;;;;;26.53;19.07;;;9.70;99.90;;;;;;5064118;28;20266;-79
2021/03/08 10:42:31;;;;;;;29.43;18.57;;;9.70;99.90;;;;;;5064308;28;20205;-83
2021/03/08 10:44:59;;;;;;;30.70;19.93;;;9.70;99.90;;;;;;5062942;28;20209;-79
2021/03/08 10:47:25;;;;;;;30.57;20.90;;;9.70;99.90;;;;;;5046157;28;20208;-80
2021/03/08 10:49:53;;;;;;;29.30;20.07;;;9.80;99.90;;;;;;5042309;28;20216;-80
2021/03/08 10:52:20;;;;;;;26.07;18.70;;;9.90;99.90;;;;;;5044379;28;20657;-84
2021/03/08 10:54:47;;;;;;;24.00;17.00;;;9.90;99.90;;;;;;5047143;28;20201;-79
2021/03/08 10:57:13;;;;;;;29.07;17.80;;;9.90;99.90;;;;;;5045471;28;20230;-82
2021/03/08 10:59:47;;;;;;;26.43;16.73;;;9.90;99.90;;;;;;5045926;28;20210;-84
2021/03/08 11:02:16;;;;;;;26.10;18.40;;;9.90;99.90;;;;;;5044884;28;20220;-81
2021/03/08 11:04:43;;;;;;;23.47;17.10;;;10.00;99.90;;;;;;5043380;28;20891;-85
2021/03/08 11:07:11;;;;;;;27.27;17.80;;;10.00;99.90;;;;;;5042797;28;20205;-77
2021/03/08 11:09:39;;;;;;;28.83;17.80;;;10.10;99.90;;;;;;5046793;28;20832;-79
2021/03/08 11:12:16;;;;;;;20.67;15.20;;;10.10;99.90;;;;;;5060977;28;20205;-80
2021/03/08 11:14:47;;;;;;;24.93;16.60;;;10.10;99.90;;;;;;5050854;28;20641;-77
2021/03/08 11:17:14;;;;;;;25.33;17.27;;;10.20;99.90;;;;;;5042948;28;20226;-83
2021/03/08 11:19:41;;;;;;;24.07;17.70;;;10.30;99.90;;;;;;5052375;28;20197;-79
2021/03/08 11:22:08;;;;;;;22.97;15.37;;;10.30;99.90;;;;;;5065526;28;20212;-78
2021/03/08 11:24:43;;;;;;;23.90;16.40;;;10.20;99.90;;;;;;5056380;28;20201;-79
2021/03/08 11:27:12;;;;;;;27.97;17.43;;;10.30;99.90;;;;;;5045642;28;20201;-77
2021/03/08 11:29:39;;;;;;;30.70;18.47;;;10.20;99.90;;;;;;5044894;28;20201;-78
2021/03/08 11:32:07;;;;;;;30.37;19.53;;;10.20;99.90;;;;;;5045771;28;20255;-78
2021/03/08 11:34:39;;;;;;;23.77;16.77;;;10.30;99.90;;;;;;5064347;28;20315;-75
2021/03/08 11:37:15;;;;;;;26.97;18.30;;;10.30;99.90;;;;;;5063846;28;20243;-78
2021/03/08 11:39:43;;;;;;;29.97;18.83;;;10.40;99.90;;;;;;5044504;28;20209;-80
2021/03/08 11:42:10;;;;;;;32.83;22.63;;;10.40;99.90;;;;;;5044956;28;20700;-77
2021/03/08 11:44:37;;;;;;;43.60;28.00;;;10.40;99.90;;;;;;5044507;28;20198;-76
2021/03/08 11:47:04;;;;;;;36.43;24.33;;;10.40;99.90;;;;;;5045093;28;20549;-79
2021/03/08 11:49:30;;;;;;;28.90;21.40;;;10.30;99.90;;;;;;5044763;28;20213;-79
2021/03/08 11:51:56;;;;;;;26.67;18.93;;;10.20;99.90;;;;;;5044493;28;20683;-78
2021/03/08 11:54:22;;;;;;;29.77;19.67;;;10.20;99.90;;;;;;5044500;28;20586;-78
2021/03/08 11:56:50;;;;;;;29.20;20.20;;;10.10;99.90;;;;;;5044963;28;20291;-79
2021/03/08 11:59:16;;;;;;;25.07;18.40;;;10.10;99.90;;;;;;5045361;28;20201;-75
2021/03/08 12:01:42;;;;;;;29.57;19.53;;;10.00;99.90;;;;;;5043422;28;20222;-77
2021/03/08 12:04:08;;;;;;;28.47;20.37;;;10.00;99.90;;;;;;5045890;28;20306;-79
2021/03/08 12:06:35;;;;;;;26.63;19.73;;;9.90;99.90;;;;;;5044453;28;20541;-77
2021/03/08 12:09:01;;;;;;;29.57;20.47;;;9.90;99.90;;;;;;5044929;28;20246;-79
2021/03/08 12:11:27;;;;;;;25.63;19.07;;;10.00;99.90;;;;;;5062909;28;20902;-78
2021/03/08 12:13:54;;;;;;;25.97;18.13;;;10.00;99.90;;;;;;5063358;28;20205;-75
2021/03/08 12:16:21;;;;;;;25.70;18.20;;;10.10;99.90;;;;;;5057956;28;20230;-76
2021/03/08 12:18:48;;;;;;;28.07;19.37;;;10.20;99.90;;;;;;5043401;28;20507;-75
2021/03/08 12:21:15;;;;;;;25.07;18.40;;;10.30;99.90;;;;;;5043176;28;20206;-75
2021/03/08 12:23:42;;;;;;;28.47;19.17;;;10.30;99.90;;;;;;5043530;28;20205;-76
2021/03/08 12:26:08;;;;;;;24.20;17.93;;;10.50;99.90;;;;;;5044022;28;20206;-75
2021/03/08 12:28:34;;;;;;;27.50;18.70;;;10.60;99.90;;;;;;5042738;28;20218;-76
2021/03/08 12:31:01;;;;;;;26.03;18.33;;;10.80;99.90;;;;;;5043838;28;20217;-79
2021/03/08 12:33:28;;;;;;;32.97;20.53;;;10.90;99.90;;;;;;5040922;28;20213;-78
2021/03/08 12:35:54;;;;;;;27.87;20.60;;;11.00;99.90;;;;;;5043769;28;20214;-77
2021/03/08 12:38:20;;;;;;;34.20;22.23;;;11.10;99.90;;;;;;5063573;28;20205;-78
2021/03/08 12:40:46;;;;;;;29.37;21.40;;;11.10;99.90;;;;;;5063605;28;20210;-76
2021/03/08 12:43:13;;;;;;;27.43;20.83;;;11.20;99.90;;;;;;5063849;28;20204;-77
2021/03/08 12:45:42;;;;;;;30.93;21.10;;;11.20;99.90;;;;;;5060362;28;20970;-76
2021/03/08 12:48:10;;;;;;;27.97;20.90;;;11.30;99.90;;;;;;5044194;28;20205;-77
2021/03/08 12:50:36;;;;;;;31.07;22.37;;;11.40;99.90;;;;;;5044023;28;20259;-79
2021/03/08 12:53:03;;;;;;;29.17;21.77;;;11.40;99.90;;;;;;5044601;28;20202;-83
2021/03/08 12:55:29;;;;;;;28.63;20.80;;;11.60;99.90;;;;;;5043374;28;20224;-76